sensor_id;sensor_type;location;lat;lon;timestamp;pressure;altitude;pressure_sealevel;temperature;humidity
13124;BME280;6627;50.920;12.050;2023-06-19T00:00:52;98598.19;;;25.05;43.61
13124;BME280;6627;50.920;12.050;2023-06-19T00:03:19;98606.91;;;24.96;43.67
13124;BME280;6627;50.920;12.050;2023-06-19T00:05:46;98635.44;;;25.11;43.57
13124;BME280;6627;50.920;12.050;2023-06-19T00:08:14;98735.81;;;25.86;42.69
13124;BME280;6627;50.920;12.050;2023-06-19T00:10:42;98828.72;;;27.04;40.07
13124;BME280;6627;50.920;12.050;2023-06-19T00:13:09;98681.13;;;25.76;41.87
13124;BME280;6627;50.920;12.050;2023-06-19T00:15:36;98660.63;;;25.49;42.25
13124;BME280;6627;50.920;12.050;2023-06-19T00:18:03;98683.50;;;25.71;42.54
13124;BME280;6627;50.920;12.050;2023-06-19T00:20:32;98673.25;;;25.64;42.33
13124;BME280;6627;50.920;12.050;2023-06-19T00:23:01;98775.81;;;26.66;40.86
13124;BME280;6627;50.920;12.050;2023-06-19T00:25:28;98766.38;;;26.56;40.42
13124;BME280;6627;50.920;12.050;2023-06-19T00:27:57;98636.88;;;25.44;42.43
13124;BME280;6627;50.920;12.050;2023-06-19T00:30:24;98670.81;;;25.73;42.31
13124;BME280;6627;50.920;12.050;2023-06-19T00:32:51;98759.28;;;26.45;40.94
13124;BME280;6627;50.920;12.050;2023-06-19T00:35:19;98728.84;;;26.23;41.22
13124;BME280;6627;50.920;12.050;2023-06-19T00:37:47;98685.06;;;25.75;42.16
13124;BME280;6627;50.920;12.050;2023-06-19T00:40:26;98790.28;;;26.95;40.02
13124;BME280;6627;50.920;12.050;2023-06-19T00:42:53;98819.78;;;27.30;39.71
13124;BME280;6627;50.920;12.050;2023-06-19T00:45:22;98763.56;;;27.05;39.54
13124;BME280;6627;50.920;12.050;2023-06-19T00:47:50;98758.00;;;27.05;39.55
13124;BME280;6627;50.920;12.050;2023-06-19T00:50:18;98834.34;;;27.86;38.07
13124;BME280;6627;50.920;12.050;2023-06-19T00:52:45;98675.75;;;26.70;39.91
13124;BME280;6627;50.920;12.050;2023-06-19T00:55:14;98699.09;;;26.79;39.75
13124;BME280;6627;50.920;12.050;2023-06-19T00:57:43;98741.53;;;27.28;38.89
13124;BME280;6627;50.920;12.050;2023-06-19T01:00:11;98605.09;;;26.26;39.83
13124;BME280;6627;50.920;12.050;2023-06-19T01:02:40;98720.09;;;26.84;39.92
13124;BME280;6627;50.920;12.050;2023-06-19T01:05:07;98671.94;;;26.53;40.18
13124;BME280;6627;50.920;12.050;2023-06-19T01:07:44;98727.09;;;26.99;39.86
13124;BME280;6627;50.920;12.050;2023-06-19T01:10:24;98774.66;;;27.53;38.66
13124;BME280;6627;50.920;12.050;2023-06-19T01:12:58;98722.06;;;27.28;38.87
13124;BME280;6627;50.920;12.050;2023-06-19T01:15:26;98812.19;;;27.76;38.56
13124;BME280;6627;50.920;12.050;2023-06-19T01:17:57;98756.41;;;27.86;37.62
13124;BME280;6627;50.920;12.050;2023-06-19T01:20:26;98656.31;;;27.11;38.98
13124;BME280;6627;50.920;12.050;2023-06-19T01:22:55;98746.63;;;27.71;38.16
13124;BME280;6627;50.920;12.050;2023-06-19T01:25:23;98704.13;;;27.36;38.32
13124;BME280;6627;50.920;12.050;2023-06-19T01:27:51;98690.81;;;27.51;37.88
13124;BME280;6627;50.920;12.050;2023-06-19T01:30:19;98745.38;;;27.76;38.02
13124;BME280;6627;50.920;12.050;2023-06-19T01:32:56;98735.63;;;27.95;37.43
13124;BME280;6627;50.920;12.050;2023-06-19T01:35:28;98704.81;;;27.78;37.51
13124;BME280;6627;50.920;12.050;2023-06-19T01:37:58;98657.88;;;27.12;39.24
13124;BME280;6627;50.920;12.050;2023-06-19T01:40:28;98664.25;;;27.09;39.23
13124;BME280;6627;50.920;12.050;2023-06-19T01:42:58;98708.09;;;27.66;38.26
13124;BME280;6627;50.920;12.050;2023-06-19T01:45:28;98683.31;;;27.14;39.38
13124;BME280;6627;50.920;12.050;2023-06-19T01:47:56;98673.72;;;27.19;39.40
13124;BME280;6627;50.920;12.050;2023-06-19T01:50:24;98634.72;;;27.22;38.81
13124;BME280;6627;50.920;12.050;2023-06-19T01:52:51;98726.09;;;27.92;38.37
13124;BME280;6627;50.920;12.050;2023-06-19T01:55:20;98757.88;;;28.25;37.12
13124;BME280;6627;50.920;12.050;2023-06-19T01:57:48;98653.75;;;27.58;38.06
13124;BME280;6627;50.920;12.050;2023-06-19T02:00:16;98826.63;;;28.89;36.84
13124;BME280;6627;50.920;12.050;2023-06-19T02:02:43;98753.88;;;28.57;36.87
13124;BME280;6627;50.920;12.050;2023-06-19T02:05:11;98642.84;;;27.74;37.91
13124;BME280;6627;50.920;12.050;2023-06-19T02:07:39;98675.28;;;27.84;38.35
13124;BME280;6627;50.920;12.050;2023-06-19T02:10:07;98724.56;;;28.18;37.68
13124;BME280;6627;50.920;12.050;2023-06-19T02:12:36;98585.41;;;26.92;39.63
13124;BME280;6627;50.920;12.050;2023-06-19T02:15:04;98614.50;;;27.18;39.15
13124;BME280;6627;50.920;12.050;2023-06-19T02:17:31;98625.34;;;27.09;39.54
13124;BME280;6627;50.920;12.050;2023-06-19T02:19:59;98623.16;;;26.89;40.26
13124;BME280;6627;50.920;12.050;2023-06-19T02:22:26;98763.50;;;27.91;38.73
13124;BME280;6627;50.920;12.050;2023-06-19T02:24:53;98759.72;;;28.39;37.21
13124;BME280;6627;50.920;12.050;2023-06-19T02:27:20;98651.66;;;27.65;38.05
13124;BME280;6627;50.920;12.050;2023-06-19T02:29:48;98807.34;;;28.75;36.96
13124;BME280;6627;50.920;12.050;2023-06-19T02:32:16;98718.00;;;28.59;36.50
13124;BME280;6627;50.920;12.050;2023-06-19T02:34:44;98787.25;;;29.11;35.85
13124;BME280;6627;50.920;12.050;2023-06-19T02:37:12;98660.28;;;28.32;36.88
13124;BME280;6627;50.920;12.050;2023-06-19T02:39:39;98563.00;;;27.40;38.17
13124;BME280;6627;50.920;12.050;2023-06-19T02:42:07;98499.34;;;26.47;39.53
13124;BME280;6627;50.920;12.050;2023-06-19T02:44:34;98608.59;;;27.16;38.78
13124;BME280;6627;50.920;12.050;2023-06-19T02:47:03;98739.13;;;28.29;37.50
13124;BME280;6627;50.920;12.050;2023-06-19T02:49:30;98649.63;;;27.73;37.98
13124;BME280;6627;50.920;12.050;2023-06-19T02:51:57;98636.22;;;27.61;37.93
13124;BME280;6627;50.920;12.050;2023-06-19T02:54:24;98529.56;;;26.79;38.89
13124;BME280;6627;50.920;12.050;2023-06-19T02:56:51;98630.75;;;27.23;39.12
13124;BME280;6627;50.920;12.050;2023-06-19T02:59:19;98679.44;;;27.73;38.49
13124;BME280;6627;50.920;12.050;2023-06-19T03:01:46;98658.22;;;27.52;38.61
13124;BME280;6627;50.920;12.050;2023-06-19T03:04:14;98680.19;;;27.77;38.23
13124;BME280;6627;50.920;12.050;2023-06-19T03:06:41;98590.59;;;26.90;39.33
13124;BME280;6627;50.920;12.050;2023-06-19T03:09:09;98593.31;;;26.56;40.46
13124;BME280;6627;50.920;12.050;2023-06-19T03:11:38;98729.72;;;27.55;39.66
13124;BME280;6627;50.920;12.050;2023-06-19T03:14:07;98712.06;;;27.72;38.71
13124;BME280;6627;50.920;12.050;2023-06-19T03:16:35;98618.28;;;27.01;39.50
13124;BME280;6627;50.920;12.050;2023-06-19T03:19:02;98704.41;;;27.46;39.01
13124;BME280;6627;50.920;12.050;2023-06-19T03:21:30;98726.16;;;27.88;38.68
13124;BME280;6627;50.920;12.050;2023-06-19T03:23:58;98763.56;;;28.18;37.95
13124;BME280;6627;50.920;12.050;2023-06-19T03:26:25;98684.84;;;27.83;38.01
13124;BME280;6627;50.920;12.050;2023-06-19T03:28:52;98688.16;;;27.75;37.92
13124;BME280;6627;50.920;12.050;2023-06-19T03:31:19;98701.28;;;28.05;37.35
13124;BME280;6627;50.920;12.050;2023-06-19T03:33:46;98647.53;;;27.81;37.34
13124;BME280;6627;50.920;12.050;2023-06-19T03:36:14;98667.09;;;27.74;37.47
13124;BME280;6627;50.920;12.050;2023-06-19T03:38:42;98676.78;;;27.92;37.40
13124;BME280;6627;50.920;12.050;2023-06-19T03:41:09;98682.16;;;28.07;37.06
13124;BME280;6627;50.920;12.050;2023-06-19T03:43:37;98669.16;;;27.97;36.97
13124;BME280;6627;50.920;12.050;2023-06-19T03:46:05;98657.75;;;27.87;37.48
13124;BME280;6627;50.920;12.050;2023-06-19T03:48:32;98658.28;;;27.79;37.41
13124;BME280;6627;50.920;12.050;2023-06-19T03:50:59;98741.34;;;28.41;36.90
13124;BME280;6627;50.920;12.050;2023-06-19T03:53:26;98551.28;;;27.22;37.15
13124;BME280;6627;50.920;12.050;2023-06-19T03:55:55;98659.66;;;27.94;37.27
13124;BME280;6627;50.920;12.050;2023-06-19T03:58:22;98749.88;;;28.58;36.61
13124;BME280;6627;50.920;12.050;2023-06-19T04:00:49;98641.56;;;27.79;37.43
13124;BME280;6627;50.920;12.050;2023-06-19T04:03:16;98745.13;;;28.55;36.68
13124;BME280;6627;50.920;12.050;2023-06-19T04:05:43;98649.78;;;27.89;37.22
13124;BME280;6627;50.920;12.050;2023-06-19T04:08:10;98725.59;;;28.28;37.06
13124;BME280;6627;50.920;12.050;2023-06-19T04:10:37;98722.47;;;28.53;36.33
13124;BME280;6627;50.920;12.050;2023-06-19T04:13:06;98711.44;;;28.46;36.32
13124;BME280;6627;50.920;12.050;2023-06-19T04:15:33;98728.00;;;28.29;37.04
13124;BME280;6627;50.920;12.050;2023-06-19T04:18:01;98733.25;;;28.51;36.77
13124;BME280;6627;50.920;12.050;2023-06-19T04:20:29;98793.63;;;29.11;35.68
13124;BME280;6627;50.920;12.050;2023-06-19T04:22:56;98776.94;;;29.08;35.73
13124;BME280;6627;50.920;12.050;2023-06-19T04:25:23;98764.91;;;29.14;35.51
13124;BME280;6627;50.920;12.050;2023-06-19T04:27:50;98818.41;;;29.53;35.45
13124;BME280;6627;50.920;12.050;2023-06-19T04:30:18;98717.16;;;28.85;36.14
13124;BME280;6627;50.920;12.050;2023-06-19T04:32:46;98863.13;;;29.73;35.83
13124;BME280;6627;50.920;12.050;2023-06-19T04:35:13;98688.78;;;28.67;36.88
13124;BME280;6627;50.920;12.050;2023-06-19T04:37:41;98826.69;;;29.36;36.08
13124;BME280;6627;50.920;12.050;2023-06-19T04:40:09;98759.88;;;29.06;36.60
13124;BME280;6627;50.920;12.050;2023-06-19T04:42:36;98804.81;;;29.55;35.60
13124;BME280;6627;50.920;12.050;2023-06-19T04:45:07;98828.00;;;29.52;35.77
13124;BME280;6627;50.920;12.050;2023-06-19T04:47:36;98813.59;;;29.77;35.19
13124;BME280;6627;50.920;12.050;2023-06-19T04:50:06;98701.06;;;28.73;36.48
13124;BME280;6627;50.920;12.050;2023-06-19T04:52:33;98825.59;;;29.54;35.52
13124;BME280;6627;50.920;12.050;2023-06-19T04:55:00;98691.09;;;28.49;36.89
13124;BME280;6627;50.920;12.050;2023-06-19T04:57:27;98612.41;;;28.14;36.96
13124;BME280;6627;50.920;12.050;2023-06-19T04:59:55;98668.50;;;28.16;37.62
13124;BME280;6627;50.920;12.050;2023-06-19T05:02:22;98800.13;;;29.05;36.45
13124;BME280;6627;50.920;12.050;2023-06-19T05:04:51;98782.66;;;29.01;36.69
13124;BME280;6627;50.920;12.050;2023-06-19T05:07:18;98743.69;;;28.97;36.46
13124;BME280;6627;50.920;12.050;2023-06-19T05:09:45;98764.41;;;28.96;36.97
13124;BME280;6627;50.920;12.050;2023-06-19T05:12:13;98831.34;;;29.43;36.10
13124;BME280;6627;50.920;12.050;2023-06-19T05:14:41;98777.31;;;29.33;35.76
13124;BME280;6627;50.920;12.050;2023-06-19T05:17:08;98813.81;;;29.42;36.15
13124;BME280;6627;50.920;12.050;2023-06-19T05:19:35;98712.19;;;28.73;36.70
13124;BME280;6627;50.920;12.050;2023-06-19T05:22:05;98799.94;;;29.15;36.70
13124;BME280;6627;50.920;12.050;2023-06-19T05:24:32;98679.44;;;27.73;39.67
13124;BME280;6627;50.920;12.050;2023-06-19T05:26:59;98770.53;;;28.03;39.99
13124;BME280;6627;50.920;12.050;2023-06-19T05:29:26;98890.78;;;28.59;39.81
13124;BME280;6627;50.920;12.050;2023-06-19T05:31:55;98919.16;;;29.11;38.49
13124;BME280;6627;50.920;12.050;2023-06-19T05:34:22;98927.75;;;29.48;37.69
13124;BME280;6627;50.920;12.050;2023-06-19T05:36:49;98937.00;;;29.68;37.58
13124;BME280;6627;50.920;12.050;2023-06-19T05:39:18;98888.31;;;29.46;37.63
13124;BME280;6627;50.920;12.050;2023-06-19T05:41:46;98931.56;;;29.84;37.24
13124;BME280;6627;50.920;12.050;2023-06-19T05:44:13;98792.88;;;28.57;39.03
13124;BME280;6627;50.920;12.050;2023-06-19T05:46:41;98743.06;;;27.36;41.84
13124;BME280;6627;50.920;12.050;2023-06-19T05:49:09;98870.09;;;27.91;41.41
13124;BME280;6627;50.920;12.050;2023-06-19T05:51:36;98889.13;;;27.97;42.01
13124;BME280;6627;50.920;12.050;2023-06-19T05:54:04;98923.94;;;27.71;43.58
13124;BME280;6627;50.920;12.050;2023-06-19T05:56:33;98958.75;;;27.93;43.44
13124;BME280;6627;50.920;12.050;2023-06-19T05:59:00;98999.25;;;28.05;44.47
13124;BME280;6627;50.920;12.050;2023-06-19T06:01:29;98996.72;;;27.76;46.01
13124;BME280;6627;50.920;12.050;2023-06-19T06:03:57;99065.06;;;28.29;45.18
13124;BME280;6627;50.920;12.050;2023-06-19T06:06:25;98986.81;;;27.68;45.88
13124;BME280;6627;50.920;12.050;2023-06-19T06:08:52;99000.59;;;27.89;44.87
13124;BME280;6627;50.920;12.050;2023-06-19T06:11:22;98953.59;;;27.47;44.79
13124;BME280;6627;50.920;12.050;2023-06-19T06:13:51;98996.75;;;27.73;45.94
13124;BME280;6627;50.920;12.050;2023-06-19T06:16:18;98984.81;;;27.72;46.80
13124;BME280;6627;50.920;12.050;2023-06-19T06:18:45;99002.31;;;27.73;47.06
13124;BME280;6627;50.920;12.050;2023-06-19T06:21:12;99277.03;;;30.18;43.51
13124;BME280;6627;50.920;12.050;2023-06-19T06:23:41;99003.69;;;29.89;41.26
13124;BME280;6627;50.920;12.050;2023-06-19T06:26:12;99091.56;;;29.81;43.25
13124;BME280;6627;50.920;12.050;2023-06-19T06:28:40;99078.34;;;29.85;42.31
13124;BME280;6627;50.920;12.050;2023-06-19T06:31:09;99080.91;;;30.00;42.13
13124;BME280;6627;50.920;12.050;2023-06-19T06:33:36;99104.75;;;30.31;41.45
13124;BME280;6627;50.920;12.050;2023-06-19T06:36:03;98977.16;;;28.97;43.54
13124;BME280;6627;50.920;12.050;2023-06-19T06:38:30;98962.34;;;28.69;43.90
13124;BME280;6627;50.920;12.050;2023-06-19T06:40:57;99136.63;;;30.37;41.84
13124;BME280;6627;50.920;12.050;2023-06-19T06:43:25;99076.13;;;29.73;42.81
13124;BME280;6627;50.920;12.050;2023-06-19T06:45:52;99082.22;;;29.91;42.49
13124;BME280;6627;50.920;12.050;2023-06-19T06:48:21;99059.97;;;29.61;42.93
13124;BME280;6627;50.920;12.050;2023-06-19T06:50:48;99145.25;;;30.47;42.28
13124;BME280;6627;50.920;12.050;2023-06-19T06:53:15;99253.94;;;31.58;40.18
13124;BME280;6627;50.920;12.050;2023-06-19T06:55:42;98977.16;;;28.97;43.82
13124;BME280;6627;50.920;12.050;2023-06-19T06:58:09;99056.50;;;29.80;42.96
13124;BME280;6627;50.920;12.050;2023-06-19T07:00:39;99051.72;;;29.23;44.42
13124;BME280;6627;50.920;12.050;2023-06-19T07:03:07;99129.31;;;30.20;43.47
13124;BME280;6627;50.920;12.050;2023-06-19T07:05:37;99025.47;;;29.17;44.15
13124;BME280;6627;50.920;12.050;2023-06-19T07:08:05;99060.22;;;29.39;44.16
13124;BME280;6627;50.920;12.050;2023-06-19T07:10:32;99152.59;;;30.60;42.09
13124;BME280;6627;50.920;12.050;2023-06-19T07:12:59;99159.91;;;30.98;41.42
13124;BME280;6627;50.920;12.050;2023-06-19T07:15:26;99122.97;;;30.63;41.45
13124;BME280;6627;50.920;12.050;2023-06-19T07:17:53;99067.19;;;30.32;41.51
13124;BME280;6627;50.920;12.050;2023-06-19T07:20:21;99130.00;;;30.71;41.39
13124;BME280;6627;50.920;12.050;2023-06-19T07:22:51;99083.25;;;30.52;41.13
13124;BME280;6627;50.920;12.050;2023-06-19T07:25:19;99032.59;;;31.46;38.92
13124;BME280;6627;50.920;12.050;2023-06-19T07:27:46;99072.84;;;31.52;38.82
13124;BME280;6627;50.920;12.050;2023-06-19T07:30:14;99018.75;;;30.82;40.32
13124;BME280;6627;50.920;12.050;2023-06-19T07:32:41;99049.47;;;30.43;42.00
13124;BME280;6627;50.920;12.050;2023-06-19T07:35:08;99142.84;;;31.12;41.08
13124;BME280;6627;50.920;12.050;2023-06-19T07:37:37;99180.44;;;31.90;39.66
13124;BME280;6627;50.920;12.050;2023-06-19T07:40:07;99142.50;;;31.50;40.80
13124;BME280;6627;50.920;12.050;2023-06-19T07:42:34;99102.09;;;31.11;41.01
13124;BME280;6627;50.920;12.050;2023-06-19T07:45:01;99051.19;;;30.56;41.49
13124;BME280;6627;50.920;12.050;2023-06-19T07:47:29;99162.16;;;31.66;40.14
13124;BME280;6627;50.920;12.050;2023-06-19T07:49:56;99329.84;;;33.74;36.98
13124;BME280;6627;50.920;12.050;2023-06-19T07:52:23;99068.72;;;32.71;36.90
13124;BME280;6627;50.920;12.050;2023-06-19T07:54:53;99061.00;;;32.46;37.69
13124;BME280;6627;50.920;12.050;2023-06-19T07:57:22;99025.47;;;32.10;37.67
13124;BME280;6627;50.920;12.050;2023-06-19T07:59:53;99152.72;;;33.36;35.88
13124;BME280;6627;50.920;12.050;2023-06-19T08:02:21;99087.84;;;33.05;36.31
13124;BME280;6627;50.920;12.050;2023-06-19T08:04:48;99029.44;;;33.00;34.51
13124;BME280;6627;50.920;12.050;2023-06-19T08:07:16;98995.03;;;32.41;36.53
13124;BME280;6627;50.920;12.050;2023-06-19T08:09:43;99019.69;;;32.75;35.19
13124;BME280;6627;50.920;12.050;2023-06-19T08:12:11;99019.00;;;32.71;35.58
13124;BME280;6627;50.920;12.050;2023-06-19T08:14:39;98994.56;;;32.43;36.55
13124;BME280;6627;50.920;12.050;2023-06-19T08:17:06;99068.00;;;33.25;35.18
13124;BME280;6627;50.920;12.050;2023-06-19T08:19:34;99019.81;;;33.26;34.58
13124;BME280;6627;50.920;12.050;2023-06-19T08:22:01;98918.06;;;32.97;33.00
13124;BME280;6627;50.920;12.050;2023-06-19T08:24:28;98839.47;;;32.71;32.65
13124;BME280;6627;50.920;12.050;2023-06-19T08:26:55;98944.78;;;33.65;31.43
13124;BME280;6627;50.920;12.050;2023-06-19T08:29:23;98750.63;;;32.68;31.35
13124;BME280;6627;50.920;12.050;2023-06-19T08:31:51;98822.31;;;33.55;30.35
13124;BME280;6627;50.920;12.050;2023-06-19T08:34:18;98657.81;;;32.62;30.96
13124;BME280;6627;50.920;12.050;2023-06-19T08:36:45;98674.97;;;32.77;30.35
13124;BME280;6627;50.920;12.050;2023-06-19T08:39:12;98747.22;;;32.99;31.30
13124;BME280;6627;50.920;12.050;2023-06-19T08:41:40;98728.88;;;33.07;30.13
13124;BME280;6627;50.920;12.050;2023-06-19T08:44:09;98849.28;;;34.09;29.28
13124;BME280;6627;50.920;12.050;2023-06-19T08:46:36;98751.59;;;33.47;30.31
13124;BME280;6627;50.920;12.050;2023-06-19T08:49:05;98636.59;;;32.74;30.24
13124;BME280;6627;50.920;12.050;2023-06-19T08:51:33;98754.84;;;33.46;29.80
13124;BME280;6627;50.920;12.050;2023-06-19T08:54:03;98789.97;;;33.50;30.22
13124;BME280;6627;50.920;12.050;2023-06-19T08:56:31;98870.22;;;34.52;29.16
13124;BME280;6627;50.920;12.050;2023-06-19T08:59:11;98742.88;;;33.76;29.92
13124;BME280;6627;50.920;12.050;2023-06-19T09:01:38;98798.97;;;34.02;30.03
13124;BME280;6627;50.920;12.050;2023-06-19T09:04:12;98853.34;;;34.52;29.48
13124;BME280;6627;50.920;12.050;2023-06-19T09:06:51;98791.38;;;34.11;29.91
13124;BME280;6627;50.920;12.050;2023-06-19T09:09:20;98749.81;;;33.84;29.48
13124;BME280;6627;50.920;12.050;2023-06-19T09:11:59;98729.31;;;33.97;28.64
13124;BME280;6627;50.920;12.050;2023-06-19T09:14:34;98758.19;;;34.28;28.43
13124;BME280;6627;50.920;12.050;2023-06-19T09:17:03;98707.50;;;34.10;28.46
13124;BME280;6627;50.920;12.050;2023-06-19T09:19:33;98717.00;;;34.44;28.16
13124;BME280;6627;50.920;12.050;2023-06-19T09:22:01;98737.09;;;34.64;28.42
13124;BME280;6627;50.920;12.050;2023-06-19T09:24:37;98920.94;;;36.09;27.34
13124;BME280;6627;50.920;12.050;2023-06-19T09:27:07;98814.59;;;36.01;26.55
13124;BME280;6627;50.920;12.050;2023-06-19T09:29:37;98715.41;;;35.93;26.43
13124;BME280;6627;50.920;12.050;2023-06-19T09:32:18;98772.16;;;36.37;26.13
13124;BME280;6627;50.920;12.050;2023-06-19T09:34:47;98757.09;;;36.50;25.55
13124;BME280;6627;50.920;12.050;2023-06-19T09:37:22;98546.53;;;35.01;26.13
13124;BME280;6627;50.920;12.050;2023-06-19T09:39:53;98544.84;;;35.04;25.82
13124;BME280;6627;50.920;12.050;2023-06-19T09:42:27;98596.72;;;35.30;25.62
13124;BME280;6627;50.920;12.050;2023-06-19T09:45:00;98497.03;;;34.58;26.26
13124;BME280;6627;50.920;12.050;2023-06-19T09:47:32;98510.44;;;34.81;25.58
13124;BME280;6627;50.920;12.050;2023-06-19T09:50:06;98653.94;;;35.46;25.92
13124;BME280;6627;50.920;12.050;2023-06-19T09:52:34;98748.03;;;36.36;25.42
13124;BME280;6627;50.920;12.050;2023-06-19T09:55:03;98717.50;;;36.68;23.99
13124;BME280;6627;50.920;12.050;2023-06-19T09:57:33;98662.72;;;36.51;24.20
13124;BME280;6627;50.920;12.050;2023-06-19T10:00:04;98590.41;;;36.29;23.96
13124;BME280;6627;50.920;12.050;2023-06-19T10:02:40;98599.28;;;36.13;24.64
13124;BME280;6627;50.920;12.050;2023-06-19T10:05:10;98653.81;;;36.91;23.96
13124;BME280;6627;50.920;12.050;2023-06-19T10:07:42;98560.97;;;36.21;24.28
13124;BME280;6627;50.920;12.050;2023-06-19T10:10:21;98549.13;;;36.17;24.43
13124;BME280;6627;50.920;12.050;2023-06-19T10:12:49;98526.72;;;36.37;24.25
13124;BME280;6627;50.920;12.050;2023-06-19T10:15:18;98605.06;;;36.67;23.83
13124;BME280;6627;50.920;12.050;2023-06-19T10:17:49;98574.88;;;36.97;23.71
13124;BME280;6627;50.920;12.050;2023-06-19T10:20:27;98673.84;;;37.56;22.98
13124;BME280;6627;50.920;12.050;2023-06-19T10:23:02;98780.13;;;38.51;22.35
13124;BME280;6627;50.920;12.050;2023-06-19T10:25:31;98455.19;;;36.65;23.30
13124;BME280;6627;50.920;12.050;2023-06-19T10:28:00;98606.97;;;37.53;22.34
13124;BME280;6627;50.920;12.050;2023-06-19T10:30:28;98551.13;;;37.18;22.70
13124;BME280;6627;50.920;12.050;2023-06-19T10:32:56;98573.72;;;37.77;22.22
13124;BME280;6627;50.920;12.050;2023-06-19T10:35:24;98579.19;;;37.66;22.34
13124;BME280;6627;50.920;12.050;2023-06-19T10:37:52;98576.53;;;37.77;22.44
13124;BME280;6627;50.920;12.050;2023-06-19T10:40:19;98792.94;;;39.17;21.72
13124;BME280;6627;50.920;12.050;2023-06-19T10:42:46;98538.16;;;38.47;21.27
13124;BME280;6627;50.920;12.050;2023-06-19T10:45:15;98502.91;;;38.68;20.76
13124;BME280;6627;50.920;12.050;2023-06-19T10:47:46;98455.50;;;38.63;20.22
13124;BME280;6627;50.920;12.050;2023-06-19T10:50:14;98385.72;;;37.88;21.10
13124;BME280;6627;50.920;12.050;2023-06-19T10:52:46;98605.88;;;38.91;20.84
13124;BME280;6627;50.920;12.050;2023-06-19T10:55:15;98577.50;;;38.85;21.21
13124;BME280;6627;50.920;12.050;2023-06-19T10:57:45;98638.19;;;39.46;20.94
13124;BME280;6627;50.920;12.050;2023-06-19T11:00:24;98260.38;;;37.76;20.74
13124;BME280;6627;50.920;12.050;2023-06-19T11:02:51;98443.41;;;37.96;21.88
13124;BME280;6627;50.920;12.050;2023-06-19T11:05:20;98571.28;;;38.81;21.40
13124;BME280;6627;50.920;12.050;2023-06-19T11:07:53;98581.19;;;38.71;22.00
13124;BME280;6627;50.920;12.050;2023-06-19T11:10:22;98565.63;;;38.61;21.75
13124;BME280;6627;50.920;12.050;2023-06-19T11:12:53;98451.84;;;37.75;22.10
13124;BME280;6627;50.920;12.050;2023-06-19T11:15:28;98661.50;;;39.61;20.70
13124;BME280;6627;50.920;12.050;2023-06-19T11:17:56;98621.38;;;39.42;21.05
13124;BME280;6627;50.920;12.050;2023-06-19T11:20:23;98615.13;;;39.32;21.62
13124;BME280;6627;50.920;12.050;2023-06-19T11:23:00;98590.44;;;39.39;20.65
13124;BME280;6627;50.920;12.050;2023-06-19T11:25:36;98600.47;;;39.40;20.98
13124;BME280;6627;50.920;12.050;2023-06-19T11:28:04;98549.72;;;39.36;20.57
13124;BME280;6627;50.920;12.050;2023-06-19T11:30:33;98576.16;;;39.27;21.20
13124;BME280;6627;50.920;12.050;2023-06-19T11:33:01;98645.63;;;39.69;21.13
13124;BME280;6627;50.920;12.050;2023-06-19T11:35:33;98652.94;;;39.55;21.33
13124;BME280;6627;50.920;12.050;2023-06-19T11:38:03;98591.25;;;38.93;21.87
13124;BME280;6627;50.920;12.050;2023-06-19T11:40:39;98722.44;;;39.97;21.08
13124;BME280;6627;50.920;12.050;2023-06-19T11:43:07;98583.16;;;39.06;21.18
13124;BME280;6627;50.920;12.050;2023-06-19T11:45:45;98540.56;;;38.74;21.42
13124;BME280;6627;50.920;12.050;2023-06-19T11:48:13;98473.94;;;38.12;22.49
13124;BME280;6627;50.920;12.050;2023-06-19T11:50:40;98541.41;;;38.60;21.67
13124;BME280;6627;50.920;12.050;2023-06-19T11:53:09;98423.78;;;37.72;22.55
13124;BME280;6627;50.920;12.050;2023-06-19T11:55:36;98632.44;;;38.94;21.53
13124;BME280;6627;50.920;12.050;2023-06-19T11:58:03;98778.66;;;39.67;21.22
13124;BME280;6627;50.920;12.050;2023-06-19T12:00:30;98527.00;;;38.58;21.72
13124;BME280;6627;50.920;12.050;2023-06-19T12:02:57;98600.56;;;38.99;21.62
13124;BME280;6627;50.920;12.050;2023-06-19T12:05:24;98688.66;;;39.42;21.49
13124;BME280;6627;50.920;12.050;2023-06-19T12:07:51;98624.06;;;39.25;20.90
13124;BME280;6627;50.920;12.050;2023-06-19T12:10:20;98583.34;;;39.54;20.48
13124;BME280;6627;50.920;12.050;2023-06-19T12:12:48;98671.06;;;39.90;20.87
13124;BME280;6627;50.920;12.050;2023-06-19T12:15:15;98606.06;;;39.60;20.99
13124;BME280;6627;50.920;12.050;2023-06-19T12:17:42;98625.59;;;39.78;20.93
13124;BME280;6627;50.920;12.050;2023-06-19T12:20:11;98430.75;;;38.58;21.45
13124;BME280;6627;50.920;12.050;2023-06-19T12:22:40;98566.53;;;39.19;20.91
13124;BME280;6627;50.920;12.050;2023-06-19T12:25:08;98442.22;;;38.75;20.84
13124;BME280;6627;50.920;12.050;2023-06-19T12:27:38;98566.72;;;39.36;21.05
13124;BME280;6627;50.920;12.050;2023-06-19T12:30:08;98382.06;;;38.07;21.63
13124;BME280;6627;50.920;12.050;2023-06-19T12:32:35;98504.09;;;38.82;21.39
13124;BME280;6627;50.920;12.050;2023-06-19T12:35:04;98495.50;;;38.97;21.34
13124;BME280;6627;50.920;12.050;2023-06-19T12:37:33;98578.91;;;39.79;20.39
13124;BME280;6627;50.920;12.050;2023-06-19T12:40:00;98575.03;;;39.77;20.36
13124;BME280;6627;50.920;12.050;2023-06-19T12:42:33;98485.13;;;39.20;20.63
13124;BME280;6627;50.920;12.050;2023-06-19T12:45:03;98629.63;;;40.46;20.03
13124;BME280;6627;50.920;12.050;2023-06-19T12:47:31;98469.91;;;39.92;19.72
13124;BME280;6627;50.920;12.050;2023-06-19T12:49:59;98292.38;;;38.71;20.18
13124;BME280;6627;50.920;12.050;2023-06-19T12:52:26;98536.91;;;39.83;20.25
13124;BME280;6627;50.920;12.050;2023-06-19T12:54:53;98626.69;;;40.67;19.71
13124;BME280;6627;50.920;12.050;2023-06-19T12:57:21;98591.63;;;40.87;19.23
13124;BME280;6627;50.920;12.050;2023-06-19T12:59:48;98487.41;;;40.39;19.24
13124;BME280;6627;50.920;12.050;2023-06-19T13:02:16;98551.19;;;40.49;19.73
13124;BME280;6627;50.920;12.050;2023-06-19T13:04:44;98460.88;;;39.93;19.95
13124;BME280;6627;50.920;12.050;2023-06-19T13:07:11;98576.03;;;40.59;19.50